Flight Track Log - Related Links

Times and Time Zones

All times are in EDT time to prevent confusion due to time zone crossing. See the EJA396 flight status page for this flight to view local times or setup timezone preferences in your user account.


Time Position Orientation Groundspeed Altitude Reporting Facility
EDT Latitude Longitude Course Direction KTS MPH feet Rate Location/Type
Sat 12:39:34 PM 37.6500 -122.3667 322° Northwest 191 220 2,300  Level Northern Cal TRACON
Sat 12:40:34 PM 37.6833 -122.4000 322° Northwest 231 266 5,500 3,700 Climbing Northern Cal TRACON
Sat 12:41:34 PM 37.6167 -122.4667 218° Southwest 271 312 9,700 3,474 Climbing Northern Cal TRACON
Sat 12:42:09 PM 37.5811 -122.4614 173° South 282 325 11,000 813 Climbing Oakland Center
Sat 12:43:10 PM 37.4897 -122.4578 178° South 322 371 11,000  Level Oakland Center
Sat 12:44:12 PM 37.3972 -122.4542 178° South 330 380 11,000  Level Oakland Center
Sat 12:45:13 PM 37.3133 -122.4036 154° Southeast 335 386 11,000 -689 Level Oakland Center
Sat 12:46:14 PM 37.2414 -122.3539 151° Southeast 307 353 9,600 -1,463 Descending Oakland Center
Sat 12:47:16 PM 37.1711 -122.3067 152° Southeast 289 333 8,000 -1,317 Descending Oakland Center
Sat 12:48:17 PM 37.0825 -122.2669 160° South 284 327 6,900 -1,366 Descending Oakland Center
Sat 12:49:19 PM 37.0086 -122.2433 166° South 279 321 5,200 -1,415 Descending Oakland Center
Sat 12:50:20 PM 36.9308 -122.2133 163° South 276 318 4,000 -1,073 Descending Oakland Center
Sat 12:51:22 PM 36.8722 -122.1933 165° South 275 316 3,000 -488 Descending Oakland Center
Sat 12:52:23 PM 36.7889 -122.1633 164° South 275 316 3,000 -49 Level Oakland Center
Sat 12:53:24 PM 36.7169 -122.1347 162° South 274 315 2,900 -244 Descending Oakland Center
Sat 12:54:26 PM 36.6642 -122.0692 135° Southeast 276 318 2,500 -253 Descending Oakland Center
Sat 12:54:59 PM 36.6500 -122.0167 109° East 247 284 2,500 -452 Level Northern Cal TRACON
Sat 12:55:59 PM 36.6167 -121.9500 122° Southeast 193 222 1,800 -714 Descending Northern Cal TRACON
Sat 12:57:05 PM 36.6000 -121.9000 113° Southeast 120 138 1,000 -667 Descending Northern Cal TRACON
Sat 12:58:05 PM 36.6000 -121.8667 90° East 116 133 400 -600 Descending Northern Cal TRACON

Login

Don't have an account? Register now (free) for customized features, flight alerts, and more!